createdAt,value
2023-02-02T00:00:12.470Z,4.27
2023-02-02T00:00:44.176Z,4.27
2023-02-02T00:01:16.195Z,4.27
2023-02-02T00:01:47.889Z,4.27
2023-02-02T00:02:20.255Z,4.27
2023-02-02T00:02:52.029Z,4.27
2023-02-02T00:03:24.022Z,4.27
2023-02-02T00:03:55.969Z,4.27
2023-02-02T00:04:27.825Z,4.27
2023-02-02T00:04:59.953Z,4.27
2023-02-02T00:05:31.907Z,4.27
2023-02-02T00:06:03.674Z,4.38
2023-02-02T00:06:35.742Z,4.38
2023-02-02T00:07:07.778Z,4.50
2023-02-02T00:07:39.688Z,4.50
2023-02-02T00:08:11.858Z,4.50
2023-02-02T00:08:43.662Z,4.50
2023-02-02T00:09:15.744Z,4.38
2023-02-02T00:09:47.569Z,4.38
2023-02-02T00:10:19.554Z,4.38
2023-02-02T00:10:51.673Z,4.38
2023-02-02T00:11:23.627Z,4.38
2023-02-02T00:11:55.384Z,4.27
2023-02-02T00:12:27.496Z,4.27
2023-02-02T00:12:59.524Z,4.27
2023-02-02T00:13:31.615Z,4.27
2023-02-02T00:14:03.448Z,4.27
2023-02-02T00:14:35.699Z,4.27
2023-02-02T00:15:07.733Z,4.27
2023-02-02T00:15:39.402Z,4.27
2023-02-02T00:16:11.348Z,4.27
2023-02-02T00:16:43.343Z,4.27
2023-02-02T00:17:15.353Z,4.27
2023-02-02T00:17:47.370Z,4.27
2023-02-02T00:18:19.197Z,4.27
2023-02-02T00:18:51.333Z,4.27
2023-02-02T00:19:23.242Z,4.27
2023-02-02T00:19:55.292Z,4.27
2023-02-02T00:20:27.273Z,4.27
2023-02-02T00:20:59.111Z,4.27
2023-02-02T00:21:31.259Z,4.27
2023-02-02T00:22:03.178Z,4.27
2023-02-02T00:22:34.984Z,4.27
2023-02-02T00:23:07.041Z,4.27
2023-02-02T00:23:39.039Z,4.27
2023-02-02T00:24:11.214Z,4.38
2023-02-02T00:24:42.938Z,4.38
2023-02-02T00:25:14.970Z,4.38
2023-02-02T00:25:47.079Z,4.50
2023-02-02T00:26:19.063Z,4.50
2023-02-02T00:26:51.160Z,4.50
2023-02-02T00:27:22.820Z,4.50
2023-02-02T00:27:54.896Z,4.50
2023-02-02T00:28:26.940Z,4.50
2023-02-02T00:28:58.720Z,4.50
2023-02-02T00:29:30.911Z,4.50
2023-02-02T00:30:03.075Z,4.50
2023-02-02T00:30:34.868Z,4.50
2023-02-02T00:31:06.830Z,4.50
2023-02-02T00:31:38.790Z,4.50
2023-02-02T00:32:10.811Z,4.50
2023-02-02T00:32:42.915Z,4.50
2023-02-02T00:33:15.789Z,4.50
2023-02-02T00:33:46.715Z,4.50
2023-02-02T00:34:18.674Z,4.50
2023-02-02T00:34:50.783Z,4.50
2023-02-02T00:35:23.027Z,4.50
2023-02-02T00:35:54.486Z,4.50
2023-02-02T00:36:26.583Z,4.50
2023-02-02T00:36:58.555Z,4.50
2023-02-02T00:37:30.581Z,4.50
2023-02-02T00:38:02.457Z,4.38
2023-02-02T00:38:34.491Z,4.38
2023-02-02T00:39:06.464Z,4.38
2023-02-02T00:39:38.304Z,4.38
2023-02-02T00:40:10.479Z,4.38
2023-02-02T00:40:42.363Z,4.38
2023-02-02T00:41:14.227Z,4.38
2023-02-02T00:41:46.319Z,4.38
2023-02-02T00:42:18.312Z,4.38
2023-02-02T00:42:50.410Z,4.38
2023-02-02T00:43:22.143Z,4.38
2023-02-02T00:43:54.187Z,4.38
2023-02-02T00:44:26.209Z,4.38
2023-02-02T00:44:58.362Z,4.38
2023-02-02T00:45:30.235Z,4.38
2023-02-02T00:46:02.170Z,4.50
2023-02-02T00:46:34.437Z,4.50
2023-02-02T00:47:06.172Z,4.50
2023-02-02T00:47:37.880Z,4.50
2023-02-02T00:48:10.351Z,4.50
2023-02-02T00:48:42.001Z,4.50
2023-02-02T00:49:14.102Z,4.61
2023-02-02T00:49:45.927Z,4.61
2023-02-02T00:50:17.964Z,4.61
2023-02-02T00:50:49.980Z,4.50
2023-02-02T00:51:22.008Z,4.50
2023-02-02T00:51:53.827Z,4.50
2023-02-02T00:52:25.864Z,4.50
2023-02-02T00:52:57.887Z,4.50
2023-02-02T00:53:29.762Z,4.50
2023-02-02T00:54:01.752Z,4.50
2023-02-02T00:54:33.780Z,4.50
2023-02-02T00:55:05.785Z,4.50
2023-02-02T00:55:37.619Z,4.50
2023-02-02T00:56:09.723Z,4.50
2023-02-02T00:56:41.816Z,4.50
2023-02-02T00:57:13.934Z,4.50
2023-02-02T00:57:45.601Z,4.50
2023-02-02T00:58:17.593Z,4.50
2023-02-02T00:58:49.611Z,4.50
2023-02-02T00:59:21.606Z,4.61
2023-02-02T00:59:53.410Z,4.61
2023-02-02T01:00:25.726Z,4.61
2023-02-02T01:00:57.694Z,4.61
2023-02-02T01:01:29.600Z,4.61
2023-02-02T01:02:01.565Z,4.61
2023-02-02T01:02:33.425Z,4.61
2023-02-02T01:03:05.397Z,4.61
2023-02-02T01:03:37.603Z,4.61
2023-02-02T01:04:09.281Z,4.61
2023-02-02T01:04:41.363Z,4.61
2023-02-02T01:05:13.363Z,4.50
2023-02-02T01:05:45.383Z,4.50
2023-02-02T01:06:17.296Z,4.50
2023-02-02T01:06:49.232Z,4.50
2023-02-02T01:07:21.395Z,4.50
2023-02-02T01:07:53.283Z,4.50
2023-02-02T01:08:25.153Z,4.38
2023-02-02T01:08:57.139Z,4.38
2023-02-02T01:09:29.318Z,4.38
2023-02-02T01:10:01.643Z,4.38
2023-02-02T01:10:32.957Z,4.38
2023-02-02T01:11:05.059Z,4.38
2023-02-02T01:11:37.049Z,4.38
2023-02-02T01:12:08.918Z,4.27
2023-02-02T01:12:41.074Z,4.27
2023-02-02T01:13:12.961Z,4.27
2023-02-02T01:13:45.052Z,4.27
2023-02-02T01:14:16.896Z,4.27
2023-02-02T01:14:48.880Z,4.38
2023-02-02T01:15:21.193Z,4.38
2023-02-02T01:15:53.062Z,4.38
2023-02-02T01:16:24.884Z,4.38
2023-02-02T01:16:56.742Z,4.38
2023-02-02T01:17:28.772Z,4.38
2023-02-02T01:18:01.023Z,4.38
2023-02-02T01:18:32.682Z,4.38
2023-02-02T01:19:04.671Z,4.38
2023-02-02T01:19:36.755Z,4.38
2023-02-02T01:20:08.748Z,4.38
2023-02-02T01:20:40.690Z,4.38
2023-02-02T01:21:12.771Z,4.38
2023-02-02T01:21:44.875Z,4.50
2023-02-02T01:22:16.789Z,4.50
2023-02-02T01:22:48.509Z,4.50
2023-02-02T01:23:20.620Z,4.50
2023-02-02T01:23:52.565Z,4.50
2023-02-02T01:24:24.553Z,4.50
2023-02-02T01:24:56.407Z,4.50
2023-02-02T01:25:28.395Z,4.50
2023-02-02T01:26:00.513Z,4.50
2023-02-02T01:26:32.578Z,4.50
2023-02-02T01:27:04.432Z,4.50
2023-02-02T01:27:36.349Z,4.50
2023-02-02T01:28:08.523Z,4.50
2023-02-02T01:28:40.543Z,4.61
2023-02-02T01:29:12.227Z,4.61
2023-02-02T01:29:44.310Z,4.61
2023-02-02T01:30:16.581Z,4.61
2023-02-02T01:30:48.309Z,4.61
2023-02-02T01:31:20.153Z,4.61
2023-02-02T01:31:52.263Z,4.61
2023-02-02T01:32:24.216Z,4.61
2023-02-02T01:32:56.235Z,4.61
2023-02-02T01:33:28.001Z,4.50
2023-02-02T01:34:00.063Z,4.50
2023-02-02T01:34:32.258Z,4.61
2023-02-02T01:35:04.119Z,4.61
2023-02-02T01:35:36.030Z,4.61
2023-02-02T01:36:07.955Z,4.61
2023-02-02T01:36:40.088Z,4.61
2023-02-02T01:37:12.067Z,4.61
2023-02-02T01:37:43.905Z,4.61
2023-02-02T01:38:16.031Z,4.61
2023-02-02T01:38:47.916Z,4.61
2023-02-02T01:39:19.960Z,4.61
2023-02-02T01:39:51.799Z,4.61
2023-02-02T01:40:23.937Z,4.61
2023-02-02T01:40:55.831Z,4.61
2023-02-02T01:41:27.726Z,4.61
2023-02-02T01:41:59.771Z,4.61
2023-02-02T01:42:31.755Z,4.72
2023-02-02T01:43:03.714Z,4.72
2023-02-02T01:43:35.720Z,4.72
2023-02-02T01:44:07.591Z,4.72
2023-02-02T01:44:39.652Z,4.72
2023-02-02T01:45:11.901Z,4.61
2023-02-02T01:45:43.552Z,4.61
2023-02-02T01:46:15.762Z,4.61
2023-02-02T01:46:47.737Z,4.61
2023-02-02T01:47:19.586Z,4.61
2023-02-02T01:47:51.410Z,4.61
2023-02-02T01:48:23.491Z,4.61
2023-02-02T01:48:55.504Z,4.61
2023-02-02T01:49:27.504Z,4.61
2023-02-02T01:49:59.359Z,4.61
2023-02-02T01:50:31.491Z,4.61
2023-02-02T01:51:03.376Z,4.61
2023-02-02T01:51:35.461Z,4.61
2023-02-02T01:52:07.215Z,4.61
2023-02-02T01:52:39.265Z,4.61
2023-02-02T01:53:11.455Z,4.61
2023-02-02T01:53:43.379Z,4.61
2023-02-02T01:54:15.239Z,4.61
2023-02-02T01:54:47.239Z,4.61
2023-02-02T01:55:19.217Z,4.61
2023-02-02T01:55:51.310Z,4.61
2023-02-02T01:56:23.028Z,4.61
2023-02-02T01:56:55.121Z,4.61
2023-02-02T01:57:27.114Z,4.61
2023-02-02T01:57:59.218Z,4.61
2023-02-02T01:58:31.175Z,4.72
2023-02-02T01:59:03.252Z,4.72
2023-02-02T01:59:35.089Z,4.72
2023-02-02T02:00:07.553Z,4.72
2023-02-02T02:00:38.914Z,4.72
2023-02-02T02:01:11.148Z,4.72
2023-02-02T02:01:42.968Z,4.72
2023-02-02T02:02:15.070Z,4.72
2023-02-02T02:02:47.000Z,4.72
2023-02-02T02:03:18.845Z,4.72
2023-02-02T02:03:51.019Z,4.72
2023-02-02T02:04:22.901Z,4.72
2023-02-02T02:04:54.784Z,4.72
2023-02-02T02:05:26.922Z,4.72
2023-02-02T02:05:58.798Z,4.72
2023-02-02T02:06:30.928Z,4.72
2023-02-02T02:07:02.682Z,4.72
2023-02-02T02:07:34.666Z,4.72
2023-02-02T02:08:06.756Z,4.72
2023-02-02T02:08:38.765Z,4.72
2023-02-02T02:09:10.608Z,4.72
2023-02-02T02:09:42.620Z,4.72
2023-02-02T02:10:14.659Z,4.72
2023-02-02T02:10:46.652Z,4.72
2023-02-02T02:11:18.549Z,4.72
2023-02-02T02:11:50.621Z,4.72
2023-02-02T02:12:22.523Z,4.72
2023-02-02T02:12:54.579Z,4.72
2023-02-02T02:13:26.489Z,4.72
2023-02-02T02:13:58.406Z,4.72
2023-02-02T02:14:30.566Z,4.61
2023-02-02T02:15:02.677Z,4.61
2023-02-02T02:15:34.292Z,4.61
2023-02-02T02:16:06.529Z,4.61
2023-02-02T02:16:38.423Z,4.61
2023-02-02T02:17:10.233Z,4.61
2023-02-02T02:17:42.305Z,4.61
2023-02-02T02:18:14.335Z,4.61
2023-02-02T02:18:46.331Z,4.61
2023-02-02T02:19:18.103Z,4.61
2023-02-02T02:19:50.156Z,4.61
2023-02-02T02:20:22.132Z,4.61
2023-02-02T02:20:54.186Z,4.61
2023-02-02T02:21:26.014Z,4.61
2023-02-02T02:21:58.030Z,4.61
2023-02-02T02:22:30.058Z,4.61
2023-02-02T02:23:02.148Z,4.61
2023-02-02T02:23:34.065Z,4.61
2023-02-02T02:24:06.008Z,4.50
2023-02-02T02:24:38.015Z,4.50
2023-02-02T02:25:10.014Z,4.50
2023-02-02T02:25:41.855Z,4.50
2023-02-02T02:26:13.926Z,4.50
2023-02-02T02:26:46.071Z,4.50
2023-02-02T02:27:17.911Z,4.50
2023-02-02T02:27:49.708Z,4.61
2023-02-02T02:28:21.826Z,4.61
2023-02-02T02:28:53.823Z,4.61
2023-02-02T02:29:25.820Z,4.61
2023-02-02T02:29:57.779Z,4.72
2023-02-02T02:30:29.858Z,4.72
2023-02-02T02:31:01.783Z,4.72
2023-02-02T02:31:33.945Z,4.72
2023-02-02T02:32:05.576Z,4.72
2023-02-02T02:32:37.631Z,4.61
2023-02-02T02:33:09.666Z,4.61
2023-02-02T02:33:41.728Z,4.61
2023-02-02T02:34:13.523Z,4.61
2023-02-02T02:34:45.545Z,4.72
2023-02-02T02:35:17.539Z,4.72
2023-02-02T02:35:49.750Z,4.77
2023-02-02T02:36:21.487Z,4.77
2023-02-02T02:36:53.465Z,4.77
2023-02-02T02:37:25.588Z,4.77
2023-02-02T02:37:57.312Z,4.77
2023-02-02T02:38:29.389Z,4.77
2023-02-02T02:39:01.510Z,4.77
2023-02-02T02:39:33.640Z,4.77
2023-02-02T02:40:05.432Z,4.77
2023-02-02T02:40:37.267Z,4.77
2023-02-02T02:41:09.390Z,4.77
2023-02-02T02:41:41.476Z,4.72
2023-02-02T02:42:13.283Z,4.72
2023-02-02T02:42:45.503Z,4.72
2023-02-02T02:43:17.221Z,4.72
2023-02-02T02:43:49.251Z,4.72
2023-02-02T02:44:21.166Z,4.72
2023-02-02T02:44:53.075Z,4.72
2023-02-02T02:45:25.589Z,4.72
2023-02-02T02:45:57.221Z,4.72
2023-02-02T02:46:29.059Z,4.72
2023-02-02T02:47:01.126Z,4.72
2023-02-02T02:47:33.039Z,4.72
2023-02-02T02:48:05.228Z,4.77
2023-02-02T02:48:36.937Z,4.77
2023-02-02T02:49:08.945Z,4.77
2023-02-02T02:49:41.097Z,4.77
2023-02-02T02:50:13.048Z,4.72
2023-02-02T02:50:44.796Z,4.72
2023-02-02T02:51:16.857Z,4.72
2023-02-02T02:51:48.888Z,4.72
2023-02-02T02:52:20.987Z,4.72
2023-02-02T02:52:53.092Z,4.72
2023-02-02T02:53:24.732Z,4.72
2023-02-02T02:53:56.787Z,4.72
2023-02-02T02:54:28.866Z,4.72
2023-02-02T02:55:00.908Z,4.72
2023-02-02T02:55:32.644Z,4.72
2023-02-02T02:56:04.697Z,4.61
2023-02-02T02:56:36.513Z,4.72
2023-02-02T02:57:08.498Z,4.72
2023-02-02T02:57:40.698Z,4.72
2023-02-02T02:58:12.645Z,4.61
2023-02-02T02:58:44.651Z,4.61
2023-02-02T02:59:16.478Z,4.61
2023-02-02T02:59:48.539Z,4.61
2023-02-02T03:00:21.099Z,4.61
2023-02-02T03:00:52.574Z,4.72
2023-02-02T03:01:24.395Z,4.72
2023-02-02T03:01:56.484Z,4.72
2023-02-02T03:02:28.465Z,4.72
2023-02-02T03:03:00.383Z,4.72
2023-02-02T03:03:32.315Z,4.61
2023-02-02T03:04:04.328Z,4.61
2023-02-02T03:04:36.352Z,4.61
2023-02-02T03:05:09.364Z,4.61
2023-02-02T03:05:40.225Z,4.61
2023-02-02T03:06:12.284Z,4.61
2023-02-02T03:06:44.420Z,4.61
2023-02-02T03:07:16.127Z,4.61
2023-02-02T03:07:48.140Z,4.61
2023-02-02T03:08:20.142Z,4.61
2023-02-02T03:08:52.215Z,4.72
2023-02-02T03:09:24.090Z,4.72
2023-02-02T03:09:56.027Z,4.72
2023-02-02T03:10:28.068Z,4.61
2023-02-02T03:11:00.128Z,4.61
2023-02-02T03:11:32.121Z,4.61
2023-02-02T03:12:04.077Z,4.61
2023-02-02T03:12:35.959Z,4.61
2023-02-02T03:13:07.939Z,4.61
2023-02-02T03:13:40.047Z,4.72
2023-02-02T03:14:11.919Z,4.72
2023-02-02T03:14:43.885Z,4.72
2023-02-02T03:15:16.087Z,4.72
2023-02-02T03:15:47.817Z,4.72
2023-02-02T03:16:19.815Z,4.72
2023-02-02T03:16:51.806Z,4.72
2023-02-02T03:17:23.684Z,4.72
2023-02-02T03:17:55.706Z,4.72
2023-02-02T03:18:27.769Z,4.72
2023-02-02T03:18:59.785Z,4.72
2023-02-02T03:19:31.657Z,4.61
2023-02-02T03:20:03.596Z,4.61
2023-02-02T03:20:35.587Z,4.61
2023-02-02T03:21:07.692Z,4.61
2023-02-02T03:21:39.481Z,4.61
2023-02-02T03:22:11.565Z,4.61
2023-02-02T03:22:43.526Z,4.61
2023-02-02T03:23:15.645Z,4.61
2023-02-02T03:23:47.537Z,4.61
2023-02-02T03:24:19.492Z,4.61
2023-02-02T03:24:51.496Z,4.61
2023-02-02T03:25:23.931Z,4.61
2023-02-02T03:25:56.245Z,4.50
2023-02-02T03:26:27.434Z,4.50
2023-02-02T03:27:00.459Z,4.50
2023-02-02T03:27:31.436Z,4.50
2023-02-02T03:28:04.250Z,4.61
2023-02-02T03:28:35.298Z,4.61
2023-02-02T03:29:08.183Z,4.61
2023-02-02T03:29:39.353Z,4.61
2023-02-02T03:30:12.404Z,4.61
2023-02-02T03:30:43.192Z,4.61
2023-02-02T03:31:16.407Z,4.61
2023-02-02T03:31:47.303Z,4.61
2023-02-02T03:32:19.969Z,4.61
2023-02-02T03:32:51.180Z,4.61
2023-02-02T03:33:24.113Z,4.61
2023-02-02T03:33:55.155Z,4.61
2023-02-02T03:34:27.986Z,4.61
2023-02-02T03:34:58.965Z,4.61
2023-02-02T03:35:35.951Z,4.61
2023-02-02T03:36:03.067Z,4.61
2023-02-02T03:36:35.561Z,4.61
2023-02-02T03:37:07.091Z,4.61
2023-02-02T03:37:39.280Z,4.61
2023-02-02T03:38:11.124Z,4.61
2023-02-02T03:38:42.940Z,4.61
2023-02-02T03:39:14.820Z,4.61
2023-02-02T03:39:46.903Z,4.61
2023-02-02T03:40:18.914Z,4.61
2023-02-02T03:40:50.828Z,4.61
2023-02-02T03:41:22.737Z,4.61
2023-02-02T03:41:54.728Z,4.61
2023-02-02T03:42:26.671Z,4.61
2023-02-02T03:42:58.705Z,4.61
2023-02-02T03:43:30.751Z,4.61
2023-02-02T03:44:02.790Z,4.61
2023-02-02T03:44:34.701Z,4.61
2023-02-02T03:45:06.848Z,4.61
2023-02-02T03:45:38.630Z,4.61
2023-02-02T03:46:10.761Z,4.61
2023-02-02T03:46:42.463Z,4.61
2023-02-02T03:47:14.532Z,4.61
2023-02-02T03:47:46.542Z,4.61
2023-02-02T03:48:18.520Z,4.61
2023-02-02T03:48:50.535Z,4.61
2023-02-02T03:49:22.375Z,4.61
2023-02-02T03:49:54.536Z,4.61
2023-02-02T03:50:26.421Z,4.61
2023-02-02T03:50:58.568Z,4.50
2023-02-02T03:51:30.434Z,4.50
2023-02-02T03:52:02.357Z,4.50
2023-02-02T03:52:34.356Z,4.50
2023-02-02T03:53:06.263Z,4.50
2023-02-02T03:53:38.289Z,4.50
2023-02-02T03:54:10.563Z,4.50
2023-02-02T03:54:42.275Z,4.50
2023-02-02T03:55:14.124Z,4.50
2023-02-02T03:55:46.187Z,4.50
2023-02-02T03:56:18.290Z,4.50
2023-02-02T03:56:50.207Z,4.50
2023-02-02T03:57:22.006Z,4.50
2023-02-02T03:57:54.028Z,4.50
2023-02-02T03:58:26.106Z,4.50
2023-02-02T03:58:58.152Z,4.50
2023-02-02T03:59:29.932Z,4.50
2023-02-02T04:00:02.419Z,4.50
2023-02-02T04:00:33.975Z,4.50
2023-02-02T04:01:06.074Z,4.50
2023-02-02T04:01:37.946Z,4.50
2023-02-02T04:02:10.114Z,4.50
2023-02-02T04:02:41.873Z,4.50
2023-02-02T04:03:13.932Z,4.50
2023-02-02T04:03:45.821Z,4.50
2023-02-02T04:04:17.800Z,4.38
2023-02-02T04:04:49.788Z,4.38
2023-02-02T04:05:22.380Z,4.38
2023-02-02T04:05:53.669Z,4.38
2023-02-02T04:06:25.709Z,4.38
2023-02-02T04:06:57.777Z,4.38
2023-02-02T04:07:29.600Z,4.38
2023-02-02T04:08:01.753Z,4.38
2023-02-02T04:08:33.713Z,4.38
2023-02-02T04:09:05.658Z,4.38
2023-02-02T04:09:37.525Z,4.50
2023-02-02T04:10:09.557Z,4.50
2023-02-02T04:10:41.570Z,4.50
2023-02-02T04:11:13.508Z,4.50
2023-02-02T04:11:45.425Z,4.50
2023-02-02T04:12:17.428Z,4.50
2023-02-02T04:12:49.445Z,4.50
2023-02-02T04:13:21.529Z,4.61
2023-02-02T04:13:53.269Z,4.61
2023-02-02T04:14:25.500Z,4.61
2023-02-02T04:14:57.329Z,4.61
2023-02-02T04:15:29.609Z,4.61
2023-02-02T04:16:01.476Z,4.61
2023-02-02T04:16:33.245Z,4.61
2023-02-02T04:17:05.232Z,4.61
2023-02-02T04:17:37.333Z,4.61
2023-02-02T04:18:09.157Z,4.61
2023-02-02T04:18:41.317Z,4.61
2023-02-02T04:19:13.182Z,4.61
2023-02-02T04:19:45.234Z,4.61
2023-02-02T04:20:17.090Z,4.61
2023-02-02T04:20:49.170Z,4.61
2023-02-02T04:21:21.199Z,4.61
2023-02-02T04:21:53.125Z,4.61
2023-02-02T04:22:24.922Z,4.61
2023-02-02T04:22:57.022Z,4.61
2023-02-02T04:23:29.065Z,4.61
2023-02-02T04:24:01.157Z,4.61
2023-02-02T04:24:32.807Z,4.61
2023-02-02T04:25:04.877Z,4.61
2023-02-02T04:25:37.166Z,4.61
2023-02-02T04:26:08.953Z,4.61
2023-02-02T04:26:41.145Z,4.61
2023-02-02T04:27:12.825Z,4.61
2023-02-02T04:27:44.842Z,4.61
2023-02-02T04:28:16.890Z,4.61
2023-02-02T04:28:48.682Z,4.61
2023-02-02T04:29:20.892Z,4.61
2023-02-02T04:29:52.824Z,4.61
2023-02-02T04:30:24.931Z,4.61
2023-02-02T04:30:56.706Z,4.61
2023-02-02T04:31:28.765Z,4.61
2023-02-02T04:32:00.805Z,4.61
2023-02-02T04:32:32.740Z,4.61
2023-02-02T04:33:04.728Z,4.61
2023-02-02T04:33:36.602Z,4.61
2023-02-02T04:34:08.747Z,4.72
2023-02-02T04:34:40.730Z,4.72
2023-02-02T04:35:12.428Z,4.72
2023-02-02T04:35:44.437Z,4.72
2023-02-02T04:36:16.514Z,4.72
2023-02-02T04:36:48.337Z,4.72
2023-02-02T04:37:20.457Z,4.72
2023-02-02T04:37:52.359Z,4.72
2023-02-02T04:38:24.444Z,4.61
2023-02-02T04:38:56.301Z,4.61
2023-02-02T04:39:28.292Z,4.61
2023-02-02T04:40:00.505Z,4.61
2023-02-02T04:40:32.390Z,4.61
2023-02-02T04:41:04.124Z,4.61
2023-02-02T04:41:36.243Z,4.61
2023-02-02T04:42:08.238Z,4.61
2023-02-02T04:42:40.208Z,4.61
2023-02-02T04:43:12.046Z,4.61
2023-02-02T04:43:44.144Z,4.61
2023-02-02T04:44:16.139Z,4.61
2023-02-02T04:44:48.133Z,4.61
2023-02-02T04:45:20.423Z,4.61
2023-02-02T04:45:52.034Z,4.61
2023-02-02T04:46:24.070Z,4.61
2023-02-02T04:46:56.066Z,4.50
2023-02-02T04:47:27.874Z,4.50
2023-02-02T04:47:59.943Z,4.50
2023-02-02T04:48:31.972Z,4.50
2023-02-02T04:49:03.985Z,4.50
2023-02-02T04:49:35.879Z,4.61
2023-02-02T04:50:07.811Z,4.61
2023-02-02T04:50:39.855Z,4.61
2023-02-02T04:51:12.067Z,4.61
2023-02-02T04:51:43.727Z,4.61
2023-02-02T04:52:15.718Z,4.61
2023-02-02T04:52:48.731Z,4.61
2023-02-02T04:53:19.828Z,4.61
2023-02-02T04:53:51.606Z,4.61
2023-02-02T04:54:23.647Z,4.61
2023-02-02T04:54:55.701Z,4.72
2023-02-02T04:55:27.741Z,4.72
2023-02-02T04:55:59.597Z,4.72
2023-02-02T04:56:31.643Z,4.72
2023-02-02T04:57:03.619Z,4.72
2023-02-02T04:57:35.793Z,4.72
2023-02-02T04:58:07.528Z,4.72
2023-02-02T04:58:39.542Z,4.72
2023-02-02T04:59:11.591Z,4.72
2023-02-02T04:59:43.554Z,4.72
2023-02-02T05:00:15.754Z,4.72
2023-02-02T05:00:47.441Z,4.72
2023-02-02T05:01:19.571Z,4.72
2023-02-02T05:01:51.466Z,4.72
2023-02-02T05:02:23.295Z,4.72
2023-02-02T05:02:55.302Z,4.72
2023-02-02T05:03:27.474Z,4.72
2023-02-02T05:03:59.386Z,4.72
2023-02-02T05:04:31.399Z,4.72
2023-02-02T05:05:03.202Z,4.72
2023-02-02T05:05:35.548Z,4.72
2023-02-02T05:06:07.151Z,4.72
2023-02-02T05:06:39.112Z,4.72
2023-02-02T05:07:11.256Z,4.72
2023-02-02T05:07:43.128Z,4.72
2023-02-02T05:08:15.295Z,4.72
2023-02-02T05:08:47.075Z,4.61
2023-02-02T05:09:19.054Z,4.61
2023-02-02T05:09:51.245Z,4.61
2023-02-02T05:10:23.116Z,4.72
2023-02-02T05:10:55.015Z,4.72
2023-02-02T05:11:26.999Z,4.72
2023-02-02T05:11:59.019Z,4.72
2023-02-02T05:12:30.900Z,4.72
2023-02-02T05:13:02.854Z,4.72
2023-02-02T05:13:34.903Z,4.77
2023-02-02T05:14:06.910Z,4.77
2023-02-02T05:14:38.763Z,4.77
2023-02-02T05:15:11.096Z,4.77
2023-02-02T05:15:42.949Z,4.77
2023-02-02T05:16:15.032Z,4.77
2023-02-02T05:16:46.726Z,4.72
2023-02-02T05:17:18.685Z,4.72
2023-02-02T05:17:50.857Z,4.72
2023-02-02T05:18:22.724Z,4.72
2023-02-02T05:18:54.597Z,4.72
2023-02-02T05:19:26.640Z,4.72
2023-02-02T05:19:58.576Z,4.72
2023-02-02T05:20:30.812Z,4.72
2023-02-02T05:21:02.522Z,4.72
2023-02-02T05:21:34.499Z,4.72
2023-02-02T05:22:06.713Z,4.77
2023-02-02T05:22:38.597Z,4.77
2023-02-02T05:23:10.505Z,4.77
2023-02-02T05:23:42.446Z,4.77
2023-02-02T05:24:14.432Z,4.77
2023-02-02T05:24:46.507Z,4.77
2023-02-02T05:25:18.291Z,4.77
2023-02-02T05:25:50.482Z,4.77
2023-02-02T05:26:22.451Z,4.77
2023-02-02T05:26:54.502Z,4.88
2023-02-02T05:27:26.249Z,4.88
2023-02-02T05:27:58.421Z,4.88
2023-02-02T05:28:30.385Z,4.88
2023-02-02T05:29:02.304Z,4.88
2023-02-02T05:29:34.169Z,4.88
2023-02-02T05:30:06.454Z,4.88
2023-02-02T05:30:38.252Z,4.77
2023-02-02T05:31:10.256Z,4.77
2023-02-02T05:31:42.135Z,4.77
2023-02-02T05:32:14.092Z,4.77
2023-02-02T05:32:46.147Z,4.77
2023-02-02T05:33:18.222Z,4.77
2023-02-02T05:33:49.952Z,4.77
2023-02-02T05:34:22.387Z,4.77
2023-02-02T05:34:54.064Z,4.77
2023-02-02T05:35:26.366Z,4.77
2023-02-02T05:35:57.922Z,4.77
2023-02-02T05:36:29.948Z,4.77
2023-02-02T05:37:01.987Z,4.77
2023-02-02T05:37:33.837Z,4.77
2023-02-02T05:38:05.860Z,4.77
2023-02-02T05:38:37.858Z,4.77
2023-02-02T05:39:09.916Z,4.72
2023-02-02T05:39:41.781Z,4.72
2023-02-02T05:40:13.746Z,4.72
2023-02-02T05:40:45.914Z,4.77
2023-02-02T05:41:17.812Z,4.77
2023-02-02T05:41:49.646Z,4.77
2023-02-02T05:42:22.361Z,4.77
2023-02-02T05:42:53.686Z,4.77
2023-02-02T05:43:25.703Z,4.77
2023-02-02T05:43:57.521Z,4.77
2023-02-02T05:44:29.583Z,4.77
2023-02-02T05:45:02.152Z,4.77
2023-02-02T05:45:33.739Z,4.88
2023-02-02T05:46:05.589Z,4.88
2023-02-02T05:46:37.613Z,4.88
2023-02-02T05:47:09.608Z,4.88
2023-02-02T05:47:41.573Z,4.88
2023-02-02T05:48:13.366Z,4.77
2023-02-02T05:48:45.416Z,4.77
2023-02-02T05:49:17.498Z,4.77
2023-02-02T05:49:49.453Z,4.77
2023-02-02T05:50:21.363Z,4.77
2023-02-02T05:50:53.331Z,4.77
2023-02-02T05:51:25.349Z,4.77
2023-02-02T05:51:57.403Z,4.77
2023-02-02T05:52:29.206Z,4.77
2023-02-02T05:53:01.401Z,4.77
2023-02-02T05:53:33.272Z,4.77
2023-02-02T05:54:05.313Z,4.77
2023-02-02T05:54:37.179Z,4.77
2023-02-02T05:55:09.099Z,4.77
2023-02-02T05:55:41.324Z,4.88
2023-02-02T05:56:12.997Z,4.88
2023-02-02T05:56:45.036Z,4.88
2023-02-02T05:57:17.088Z,4.88
2023-02-02T05:57:49.065Z,4.88
2023-02-02T05:58:21.286Z,4.88
2023-02-02T05:58:53.115Z,5.00
2023-02-02T05:59:24.981Z,5.00
2023-02-02T05:59:56.954Z,4.88
2023-02-02T06:00:29.025Z,4.88
2023-02-02T06:01:00.933Z,4.88
2023-02-02T06:01:32.857Z,4.88
2023-02-02T06:02:04.927Z,4.88
2023-02-02T06:02:36.723Z,4.88
2023-02-02T06:03:08.905Z,4.88
2023-02-02T06:03:40.976Z,4.88
2023-02-02T06:04:12.876Z,4.88
2023-02-02T06:04:44.642Z,4.88
2023-02-02T06:05:16.870Z,4.88
2023-02-02T06:05:48.694Z,4.88
2023-02-02T06:06:20.863Z,4.77
2023-02-02T06:06:52.589Z,4.77
2023-02-02T06:07:24.576Z,4.77
2023-02-02T06:08:01.504Z,4.77
2023-02-02T06:08:28.667Z,4.88
2023-02-02T06:09:00.613Z,4.88
2023-02-02T06:09:32.503Z,4.88
2023-02-02T06:10:04.588Z,4.88
2023-02-02T06:10:36.596Z,4.88
2023-02-02T06:11:08.579Z,4.88
2023-02-02T06:11:40.604Z,4.88
2023-02-02T06:12:12.455Z,4.88
2023-02-02T06:12:44.438Z,4.88
2023-02-02T06:13:16.429Z,4.88
2023-02-02T06:13:48.347Z,4.88
2023-02-02T06:14:20.720Z,4.77
2023-02-02T06:14:52.342Z,4.77
2023-02-02T06:15:24.739Z,4.77
2023-02-02T06:15:56.398Z,4.77
2023-02-02T06:16:28.307Z,4.77
2023-02-02T06:17:00.425Z,4.77
2023-02-02T06:17:32.376Z,4.77
2023-02-02T06:18:04.143Z,4.77
2023-02-02T06:18:36.200Z,4.77
2023-02-02T06:19:08.251Z,4.77
2023-02-02T06:19:39.999Z,4.77
2023-02-02T06:20:12.085Z,4.88
2023-02-02T06:20:44.117Z,4.88
2023-02-02T06:21:16.146Z,4.88
2023-02-02T06:21:47.989Z,4.88
2023-02-02T06:22:19.995Z,4.88
2023-02-02T06:22:51.985Z,4.88
2023-02-02T06:23:24.161Z,4.88
2023-02-02T06:23:55.935Z,4.88
2023-02-02T06:24:27.924Z,4.88
2023-02-02T06:25:00.276Z,5.00
2023-02-02T06:25:31.952Z,5.00
2023-02-02T06:26:03.830Z,5.00
2023-02-02T06:26:35.894Z,5.00
2023-02-02T06:27:07.944Z,5.00
2023-02-02T06:27:39.886Z,5.00
2023-02-02T06:28:11.654Z,5.00
2023-02-02T06:28:43.769Z,5.00
2023-02-02T06:29:16.843Z,5.00
2023-02-02T06:29:47.920Z,5.00
2023-02-02T06:30:19.802Z,5.00
2023-02-02T06:30:51.794Z,5.00
2023-02-02T06:31:23.814Z,5.00
2023-02-02T06:31:56.250Z,5.11
2023-02-02T06:32:27.588Z,5.11
2023-02-02T06:33:01.509Z,5.11
2023-02-02T06:33:31.682Z,5.11
2023-02-02T06:34:05.423Z,5.11
2023-02-02T06:34:35.729Z,5.11
2023-02-02T06:35:08.401Z,5.11
2023-02-02T06:35:39.572Z,5.11
2023-02-02T06:36:12.414Z,5.11
2023-02-02T06:36:43.354Z,5.11
2023-02-02T06:37:18.323Z,5.11
2023-02-02T06:37:47.444Z,5.00
2023-02-02T06:38:20.283Z,5.00
2023-02-02T06:38:51.463Z,5.00
2023-02-02T06:39:25.195Z,5.00
2023-02-02T06:39:55.401Z,5.00
2023-02-02T06:40:28.161Z,5.00
2023-02-02T06:40:59.199Z,5.00
2023-02-02T06:41:33.059Z,5.00
2023-02-02T06:42:19.245Z,5.00
2023-02-02T06:42:36.497Z,5.00
2023-02-02T06:43:07.150Z,5.00
2023-02-02T06:43:40.182Z,5.00
2023-02-02T06:44:11.278Z,5.00
2023-02-02T06:44:43.871Z,5.00
2023-02-02T06:45:15.271Z,5.00
2023-02-02T06:45:47.991Z,5.00
2023-02-02T06:46:19.131Z,5.00
2023-02-02T06:46:51.857Z,4.88
2023-02-02T06:47:22.951Z,4.88
2023-02-02T06:47:56.106Z,4.88
2023-02-02T06:48:27.055Z,4.88
2023-02-02T06:48:59.903Z,4.88
2023-02-02T06:49:30.988Z,4.88
2023-02-02T06:50:04.808Z,4.77
2023-02-02T06:50:34.922Z,4.77
2023-02-02T06:51:07.652Z,4.77
2023-02-02T06:51:38.718Z,4.77
2023-02-02T06:52:11.796Z,4.77
2023-02-02T06:52:42.766Z,4.77
2023-02-02T06:53:15.666Z,4.77
2023-02-02T06:53:46.725Z,4.77
2023-02-02T06:54:19.690Z,4.77
2023-02-02T06:54:50.833Z,4.77
2023-02-02T06:55:23.961Z,4.77
2023-02-02T06:55:54.534Z,4.77
2023-02-02T06:56:27.549Z,4.77
2023-02-02T06:56:58.437Z,4.77
2023-02-02T06:57:31.496Z,4.77
2023-02-02T06:58:02.643Z,4.77
2023-02-02T06:58:35.685Z,4.72
2023-02-02T06:59:06.356Z,4.72
2023-02-02T06:59:39.311Z,4.72
2023-02-02T07:00:11.137Z,4.72
2023-02-02T07:00:45.215Z,4.72
2023-02-02T07:01:14.712Z,4.72
2023-02-02T07:01:47.230Z,4.72
2023-02-02T07:02:18.451Z,4.72
2023-02-02T07:02:51.518Z,4.72
2023-02-02T07:03:22.209Z,4.72
2023-02-02T07:03:56.254Z,4.72
2023-02-02T07:04:26.309Z,4.72
2023-02-02T07:05:00.018Z,4.72
2023-02-02T07:05:31.087Z,4.61